Time;durP1;ratioP1;P1;durP2;ratioP2;P2;SDS_P1;SDS_P2;PMS_P1;PMS_P2;Temp;Humidity;BMP_temperature;BMP_pressure;BME280_temperature;BME280_humidity;BME280_pressure;Samples;Min_cycle;Max_cycle;Signal;HPM_P1;HPM_P2
2023/12/09 00:00:43;;;;;;;33.80;27.00;;;2.30;99.90;;;;;;5019997;28;20189;-39
2023/12/09 00:03:08;;;;;;;33.87;27.40;;;2.30;99.90;;;;;;5020260;28;20243;-40
2023/12/09 00:05:34;;;;;;;33.87;26.57;;;2.40;99.90;;;;;;5020149;28;20354;-40
2023/12/09 00:08:00;;;;;;;38.70;29.00;;;2.40;99.90;;;;;;5017964;28;20194;-40
2023/12/09 00:10:25;;;;;;;34.93;28.27;;;2.30;99.90;;;;;;5019495;28;20438;-40
2023/12/09 00:12:51;;;;;;;32.63;28.90;;;2.40;98.70;;;;;;5020261;28;20207;-40
2023/12/09 00:15:17;;;;;;;32.60;27.93;;;2.40;92.80;;;;;;5020536;28;20195;-40
2023/12/09 00:17:43;;;;;;;31.00;26.10;;;2.40;91.70;;;;;;5019462;28;20198;-41
2023/12/09 00:20:09;;;;;;;34.38;26.50;;;2.40;86.50;;;;;;5019703;28;20536;-40
2023/12/09 00:22:34;;;;;;;32.80;26.88;;;2.40;80.40;;;;;;5020212;28;20271;-39
2023/12/09 00:25:00;;;;;;;31.20;27.77;;;2.50;77.00;;;;;;5019803;28;20665;-40
2023/12/09 00:27:26;;;;;;;28.87;26.00;;;2.50;67.30;;;;;;5018147;28;20327;-41
2023/12/09 00:29:51;;;;;;;34.80;27.70;;;2.50;61.40;;;;;;5019460;28;20210;-40
2023/12/09 00:32:17;;;;;;;33.43;27.43;;;2.50;63.20;;;;;;5020372;28;20177;-40
2023/12/09 00:34:42;;;;;;;30.90;27.53;;;2.50;54.20;;;;;;5020215;28;20313;-42
2023/12/09 00:37:08;;;;;;;34.03;26.87;;;2.60;51.10;;;;;;5018934;28;20798;-40
2023/12/09 00:39:34;;;;;;;29.00;25.00;;;2.60;51.20;;;;;;5020034;28;20536;-40
2023/12/09 00:41:59;;;;;;;29.70;24.57;;;2.50;33.50;;;;;;5019345;28;20194;-39
2023/12/09 00:44:25;;;;;;;29.27;26.03;;;2.60;33.30;;;;;;5018814;28;20209;-40
2023/12/09 00:46:51;;;;;;;33.90;26.50;;;2.60;18.90;;;;;;5019260;28;20937;-40
2023/12/09 00:49:17;;;;;;;29.53;26.33;;;2.60;11.50;;;;;;5019619;28;20181;-40
2023/12/09 00:51:42;;;;;;;29.53;26.33;;;2.70;10.60;;;;;;5020030;28;20667;-40
2023/12/09 00:54:08;;;;;;;31.23;27.63;;;2.70;2.80;;;;;;5019718;28;20515;-40
2023/12/09 00:56:33;;;;;;;31.07;26.23;;;2.70;1.00;;;;;;5019749;28;20907;-39
2023/12/09 00:58:59;;;;;;;32.97;25.07;;;2.70;1.00;;;;;;5018529;28;20298;-39
2023/12/09 01:01:24;;;;;;;28.73;25.20;;;2.70;1.00;;;;;;5019461;28;20272;-39
2023/12/09 01:03:50;;;;;;;33.37;25.90;;;2.70;1.00;;;;;;5019781;28;20213;-39
2023/12/09 01:06:16;;;;;;;30.80;25.30;;;2.80;1.00;;;;;;5021457;28;20191;-56
2023/12/09 01:08:42;;;;;;;31.05;24.85;;;2.80;1.00;;;;;;5021539;28;20192;-54
2023/12/09 01:11:07;;;;;;;30.63;25.77;;;2.80;1.00;;;;;;5023784;28;20192;-53
2023/12/09 01:13:33;;;;;;;34.57;27.03;;;2.80;1.00;;;;;;5024126;28;20712;-52
2023/12/09 01:15:58;;;;;;;29.83;25.73;;;2.90;1.00;;;;;;5023934;28;20536;-54
2023/12/09 01:18:24;;;;;;;29.77;25.20;;;2.90;1.00;;;;;;5022677;28;20245;-54
2023/12/09 01:20:50;;;;;;;27.70;24.50;;;2.90;1.00;;;;;;5022862;28;20230;-55
2023/12/09 01:23:15;;;;;;;33.97;24.90;;;2.90;1.00;;;;;;5021538;28;20186;-52
2023/12/09 01:25:41;;;;;;;29.80;25.70;;;2.90;1.00;;;;;;5023009;28;20235;-54
2023/12/09 01:28:06;;;;;;;32.43;25.90;;;2.90;1.00;;;;;;5020661;28;20181;-55
2023/12/09 01:30:32;;;;;;;30.23;26.10;;;2.90;1.00;;;;;;5022569;28;20731;-40
2023/12/09 01:32:58;;;;;;;30.33;25.60;;;2.90;1.00;;;;;;5022194;28;20546;-39
2023/12/09 01:35:23;;;;;;;29.80;24.83;;;3.00;1.00;;;;;;5022616;28;20190;-40
2023/12/09 01:37:49;;;;;;;33.57;25.57;;;2.90;1.00;;;;;;5022168;28;20594;-39
2023/12/09 01:40:15;;;;;;;30.03;24.57;;;2.90;1.00;;;;;;5021124;28;20188;-39
2023/12/09 01:42:42;;;;;;;28.88;24.55;;;3.00;1.00;;;;;;5022713;28;20196;-39
2023/12/09 01:45:08;;;;;;;28.13;24.35;;;2.90;1.00;;;;;;5021357;28;20217;-40
2023/12/09 01:47:35;;;;;;;31.42;26.02;;;2.90;1.00;;;;;;5022671;28;20204;-39
2023/12/09 01:50:03;;;;;;;30.02;24.40;;;3.00;1.00;;;;;;5022234;28;20188;-39
2023/12/09 01:52:30;;;;;;;34.53;25.63;;;3.00;1.00;;;;;;5022598;28;20178;-40
2023/12/09 01:54:57;;;;;;;33.40;25.92;;;3.00;1.00;;;;;;5022602;28;20204;-40
2023/12/09 01:57:22;;;;;;;28.42;24.45;;;3.10;1.00;;;;;;5022195;28;20182;-54
2023/12/09 01:59:48;;;;;;;32.20;26.10;;;3.10;1.00;;;;;;5020419;28;20525;-56
2023/12/09 02:02:14;;;;;;;28.53;25.47;;;3.00;1.00;;;;;;5022741;28;20184;-54
2023/12/09 02:04:40;;;;;;;31.07;24.87;;;3.00;1.00;;;;;;5022511;28;20288;-40
2023/12/09 02:07:06;;;;;;;31.08;25.55;;;3.10;1.00;;;;;;5022267;28;20431;-39
2023/12/09 02:09:32;;;;;;;32.83;26.00;;;3.10;1.00;;;;;;5020641;28;20559;-40
2023/12/09 02:12:02;;;;;;;30.17;25.10;;;3.10;1.00;;;;;;5022247;28;20189;-39
2023/12/09 02:14:44;;;;;;;29.70;25.15;;;3.10;1.00;;;;;;5022256;28;20602;-39
2023/12/09 02:17:10;;;;;;;29.98;25.55;;;3.10;1.00;;;;;;5020916;28;20200;-39
2023/12/09 02:19:36;;;;;;;30.43;26.23;;;3.10;1.00;;;;;;5021678;28;20232;-39
2023/12/09 02:22:09;;;;;;;28.20;25.20;;;3.10;1.00;;;;;;5020787;28;20185;-39
2023/12/09 02:24:35;;;;;;;31.20;23.95;;;3.20;1.00;;;;;;5022312;28;20885;-39
2023/12/09 02:27:12;;;;;;;29.13;24.90;;;3.10;1.00;;;;;;5021480;28;20256;-39
2023/12/09 02:30:03;;;;;;;30.30;26.15;;;3.10;1.00;;;;;;5021245;28;20215;-55
2023/12/09 02:32:31;;;;;;;28.50;24.25;;;3.10;1.00;;;;;;5022546;28;20185;-53
2023/12/09 02:34:58;;;;;;;29.08;24.17;;;3.10;1.00;;;;;;5021001;28;20200;-55
2023/12/09 02:37:26;;;;;;;28.67;24.30;;;3.00;1.00;;;;;;5021680;28;21681;-56
2023/12/09 02:39:53;;;;;;;28.60;25.00;;;3.10;1.00;;;;;;5021553;28;20246;-55
2023/12/09 02:42:18;;;;;;;29.35;24.52;;;3.10;1.00;;;;;;5021025;28;20271;-39
2023/12/09 02:44:45;;;;;;;32.70;26.53;;;3.10;1.00;;;;;;5021915;28;20210;-40
2023/12/09 02:47:14;;;;;;;36.13;26.13;;;3.00;1.00;;;;;;5021146;28;20260;-39
2023/12/09 02:49:43;;;;;;;29.50;24.85;;;3.00;1.00;;;;;;5020904;28;20662;-39
2023/12/09 02:52:10;;;;;;;30.83;24.85;;;3.00;1.00;;;;;;5021751;28;20181;-40
2023/12/09 02:54:36;;;;;;;31.85;26.25;;;3.00;1.00;;;;;;5021366;28;20195;-39
2023/12/09 02:57:01;;;;;;;32.63;25.93;;;3.00;1.00;;;;;;5022383;28;20196;-52
2023/12/09 02:59:28;;;;;;;27.57;24.33;;;3.00;1.00;;;;;;5021714;28;20542;-55
2023/12/09 03:01:54;;;;;;;29.70;25.98;;;3.00;1.00;;;;;;5020898;28;20662;-57
2023/12/09 03:04:20;;;;;;;30.95;25.65;;;3.10;1.00;;;;;;5021871;28;20201;-54
2023/12/09 03:06:46;;;;;;;31.97;26.27;;;3.10;1.00;;;;;;5021028;28;20227;-56
2023/12/09 03:09:11;;;;;;;33.77;26.60;;;3.10;1.00;;;;;;5021706;28;20303;-55
2023/12/09 03:11:37;;;;;;;33.17;26.57;;;3.00;1.00;;;;;;5019629;28;20193;-53
2023/12/09 03:14:02;;;;;;;33.03;26.30;;;3.10;1.00;;;;;;5020972;28;20193;-54
2023/12/09 03:16:28;;;;;;;31.17;25.57;;;3.00;1.00;;;;;;5021385;28;20189;-54
2023/12/09 03:18:53;;;;;;;33.83;26.07;;;3.00;1.00;;;;;;5020585;28;20604;-54
2023/12/09 03:21:19;;;;;;;31.10;26.00;;;3.10;1.00;;;;;;5020485;28;20195;-48
2023/12/09 03:23:45;;;;;;;30.33;24.83;;;3.00;1.00;;;;;;5019915;28;20214;-53
2023/12/09 03:26:16;;;;;;;34.87;26.30;;;3.10;1.00;;;;;;5021147;28;21229;-56
2023/12/09 03:28:43;;;;;;;31.25;25.90;;;3.00;1.00;;;;;;5020554;28;20197;-54
2023/12/09 03:31:15;;;;;;;29.02;24.05;;;3.00;1.00;;;;;;5020138;28;20232;-56
2023/12/09 03:33:42;;;;;;;31.85;26.55;;;3.00;1.00;;;;;;5020642;28;20227;-54
2023/12/09 03:36:08;;;;;;;32.60;26.05;;;3.00;1.00;;;;;;5021118;28;20683;-52
2023/12/09 03:38:34;;;;;;;30.05;25.40;;;3.00;1.00;;;;;;5020244;28;20247;-56
2023/12/09 03:41:02;;;;;;;30.10;26.00;;;3.00;1.00;;;;;;5020009;28;21204;-55
2023/12/09 03:43:27;;;;;;;31.35;25.55;;;3.00;1.00;;;;;;5020367;28;20192;-55
2023/12/09 03:45:53;;;;;;;31.50;26.50;;;2.90;1.00;;;;;;5020868;28;20189;-51
2023/12/09 03:48:18;;;;;;;29.80;25.17;;;3.00;1.00;;;;;;5020842;28;20185;-56
2023/12/09 03:50:44;;;;;;;30.10;25.83;;;3.00;1.00;;;;;;5020624;28;20205;-50
2023/12/09 03:53:09;;;;;;;33.50;24.73;;;3.00;1.00;;;;;;5020730;28;20178;-57
2023/12/09 03:55:35;;;;;;;27.93;25.03;;;3.00;1.00;;;;;;5020732;28;20198;-54
2023/12/09 03:58:01;;;;;;;29.70;25.93;;;3.10;1.00;;;;;;5018266;28;20259;-51
2023/12/09 04:00:26;;;;;;;29.70;24.77;;;3.00;1.00;;;;;;5020275;28;20185;-56
2023/12/09 04:02:52;;;;;;;35.33;26.37;;;3.00;1.00;;;;;;5020369;28;20298;-56
2023/12/09 04:05:18;;;;;;;30.60;25.43;;;3.00;1.00;;;;;;5021029;28;20243;-54
2023/12/09 04:07:43;;;;;;;30.47;26.83;;;3.00;1.00;;;;;;5020130;28;20220;-54
2023/12/09 04:10:09;;;;;;;28.10;25.10;;;3.00;1.00;;;;;;5017961;28;20193;-55
2023/12/09 04:12:35;;;;;;;33.43;26.27;;;3.00;1.00;;;;;;5019957;28;20196;-53
2023/12/09 04:15:01;;;;;;;33.33;25.67;;;3.00;1.00;;;;;;5020438;28;20263;-54
2023/12/09 04:17:27;;;;;;;29.90;24.83;;;3.00;1.00;;;;;;5020653;28;20510;-51
2023/12/09 04:19:52;;;;;;;28.70;25.30;;;3.00;1.00;;;;;;5019627;28;20331;-54
2023/12/09 04:22:19;;;;;;;31.33;26.67;;;2.90;1.00;;;;;;5020050;28;20191;-54
2023/12/09 04:24:45;;;;;;;30.10;24.95;;;3.00;1.00;;;;;;5020677;28;20217;-55
2023/12/09 04:27:10;;;;;;;34.83;26.57;;;3.00;1.00;;;;;;5020315;28;20189;-51
2023/12/09 04:29:36;;;;;;;34.97;26.87;;;3.00;1.00;;;;;;5019468;28;20184;-56
2023/12/09 04:32:02;;;;;;;30.30;26.70;;;3.00;1.00;;;;;;5020239;28;21078;-53
2023/12/09 04:34:27;;;;;;;29.30;25.57;;;2.90;1.00;;;;;;5019361;28;20251;-55
2023/12/09 04:36:53;;;;;;;29.57;26.40;;;2.90;1.00;;;;;;5020733;28;20789;-51
2023/12/09 04:39:18;;;;;;;32.17;25.40;;;2.90;1.00;;;;;;5019553;28;20620;-39
2023/12/09 04:41:46;;;;;;;29.57;24.40;;;2.90;1.00;;;;;;5023773;28;20196;-39
2023/12/09 04:44:12;;;;;;;28.75;25.08;;;2.90;1.00;;;;;;5024009;28;20701;-38
2023/12/09 04:46:38;;;;;;;28.43;24.30;;;3.00;1.00;;;;;;5023724;28;20185;-39
2023/12/09 04:49:03;;;;;;;32.57;25.17;;;2.90;1.00;;;;;;5023320;28;20191;-39
2023/12/09 04:51:29;;;;;;;31.77;25.80;;;3.00;1.00;;;;;;5023594;28;20202;-40
2023/12/09 04:53:55;;;;;;;34.70;26.27;;;3.00;1.00;;;;;;5023251;28;20544;-39
2023/12/09 04:56:20;;;;;;;31.90;25.37;;;3.00;1.00;;;;;;5023724;28;20197;-39
2023/12/09 04:58:46;;;;;;;27.93;23.57;;;3.00;1.00;;;;;;5022743;28;20191;-38
2023/12/09 05:01:11;;;;;;;30.40;25.70;;;3.10;1.00;;;;;;5022444;28;20196;-39
2023/12/09 05:03:37;;;;;;;30.80;25.53;;;3.00;1.00;;;;;;5022957;28;20210;-39
2023/12/09 05:06:04;;;;;;;29.23;24.40;;;3.10;1.00;;;;;;5022222;28;20225;-41
2023/12/09 05:08:30;;;;;;;28.45;24.98;;;3.10;1.00;;;;;;5023266;28;20169;-40
2023/12/09 05:10:56;;;;;;;30.93;24.73;;;3.10;1.00;;;;;;5021490;28;20734;-39
2023/12/09 05:13:21;;;;;;;28.87;24.30;;;3.00;1.00;;;;;;5023514;28;20948;-41
2023/12/09 05:15:48;;;;;;;31.77;26.63;;;3.00;1.00;;;;;;5023211;28;21329;-40
2023/12/09 05:18:14;;;;;;;32.97;25.17;;;3.00;1.00;;;;;;5023405;28;20182;-40
2023/12/09 05:20:39;;;;;;;28.77;25.67;;;3.00;1.00;;;;;;5020578;28;20225;-39
2023/12/09 05:23:06;;;;;;;32.23;25.83;;;2.90;1.00;;;;;;5019367;28;20435;-39
2023/12/09 05:25:32;;;;;;;32.50;25.25;;;2.90;1.00;;;;;;5022053;28;20243;-39
2023/12/09 05:27:58;;;;;;;31.10;25.13;;;2.90;1.00;;;;;;5023067;28;20256;-38
2023/12/09 05:30:23;;;;;;;27.03;23.67;;;2.90;1.00;;;;;;5021259;28;20268;-38
2023/12/09 05:32:49;;;;;;;32.60;25.10;;;2.90;1.00;;;;;;5023181;28;20190;-40
2023/12/09 05:35:15;;;;;;;29.57;24.97;;;2.90;1.00;;;;;;5022810;28;20299;-40
2023/12/09 05:37:40;;;;;;;32.47;25.57;;;2.90;1.00;;;;;;5023413;28;20238;-39
2023/12/09 05:40:07;;;;;;;31.10;24.70;;;2.90;1.00;;;;;;5022570;28;20193;-39
2023/12/09 05:42:33;;;;;;;29.73;25.48;;;2.80;1.00;;;;;;5023034;28;20185;-41
2023/12/09 05:44:58;;;;;;;36.97;26.67;;;2.80;1.00;;;;;;5022588;28;20213;-54
2023/12/09 05:47:25;;;;;;;33.03;25.70;;;2.80;1.00;;;;;;5022775;28;20216;-50
2023/12/09 05:49:50;;;;;;;37.17;26.65;;;2.90;1.00;;;;;;5022040;28;20642;-54
2023/12/09 05:52:16;;;;;;;33.97;26.07;;;2.90;1.00;;;;;;5022367;28;20192;-54
2023/12/09 05:54:42;;;;;;;36.37;25.93;;;2.90;1.00;;;;;;5022629;28;20279;-56
2023/12/09 05:57:07;;;;;;;34.00;25.40;;;2.90;1.00;;;;;;5023186;28;20850;-58
2023/12/09 05:59:33;;;;;;;29.80;24.77;;;2.90;1.00;;;;;;5021868;28;20277;-51
2023/12/09 06:01:59;;;;;;;32.00;25.90;;;2.90;1.00;;;;;;5021713;28;20192;-54
2023/12/09 06:04:24;;;;;;;39.23;26.67;;;2.90;1.00;;;;;;5021230;28;20652;-57
2023/12/09 06:06:50;;;;;;;31.93;25.30;;;2.90;1.00;;;;;;5022541;28;20224;-56
2023/12/09 06:09:15;;;;;;;29.00;25.33;;;3.00;1.00;;;;;;5022274;28;20731;-55
2023/12/09 06:11:41;;;;;;;34.07;26.57;;;3.00;1.00;;;;;;5022290;28;20189;-57
2023/12/09 06:14:07;;;;;;;33.13;24.83;;;3.00;1.00;;;;;;5021635;28;20670;-55
2023/12/09 06:16:33;;;;;;;32.70;26.93;;;3.00;1.00;;;;;;5021942;28;20216;-52
2023/12/09 06:18:59;;;;;;;33.97;25.60;;;2.90;1.00;;;;;;5021960;28;20178;-54
2023/12/09 06:21:25;;;;;;;35.17;25.13;;;2.90;1.00;;;;;;5021628;28;20197;-55
2023/12/09 06:23:52;;;;;;;35.22;25.50;;;2.90;1.00;;;;;;5022023;28;20282;-57
2023/12/09 06:26:19;;;;;;;35.08;27.30;;;2.80;1.00;;;;;;5019798;28;20193;-54
2023/12/09 06:28:44;;;;;;;32.08;25.17;;;2.90;1.00;;;;;;5021544;28;20216;-40
2023/12/09 06:31:10;;;;;;;30.90;24.97;;;2.90;1.00;;;;;;5021009;28;20181;-40
2023/12/09 06:33:36;;;;;;;30.73;23.87;;;2.90;1.00;;;;;;5022027;28;20492;-39
2023/12/09 06:36:03;;;;;;;33.72;25.30;;;2.90;1.00;;;;;;5021115;28;20216;-40
2023/12/09 06:38:29;;;;;;;30.23;23.90;;;2.90;1.00;;;;;;5021932;28;20667;-41
2023/12/09 06:40:55;;;;;;;30.80;25.38;;;2.90;1.00;;;;;;5020926;28;20197;-39
2023/12/09 06:43:20;;;;;;;33.33;25.43;;;2.90;1.00;;;;;;5021265;28;20271;-38
2023/12/09 06:45:46;;;;;;;33.53;25.30;;;2.90;1.00;;;;;;5020892;28;20194;-38
2023/12/09 06:48:12;;;;;;;30.43;25.77;;;2.90;1.00;;;;;;5020551;28;20279;-39
2023/12/09 06:50:38;;;;;;;30.20;25.47;;;2.90;1.00;;;;;;5021679;28;20312;-40
2023/12/09 06:53:03;;;;;;;33.50;24.60;;;2.90;1.00;;;;;;5020532;28;20431;-39
2023/12/09 06:55:29;;;;;;;30.73;23.90;;;2.90;1.00;;;;;;5019372;28;20238;-39
2023/12/09 06:57:54;;;;;;;38.00;26.07;;;2.80;1.00;;;;;;5019843;28;20190;-39
2023/12/09 07:00:20;;;;;;;28.37;24.80;;;2.80;1.00;;;;;;5020258;28;20199;-39
2023/12/09 07:02:46;;;;;;;31.67;25.33;;;2.80;1.00;;;;;;5019925;28;20200;-39
2023/12/09 07:05:15;;;;;;;31.60;25.70;;;2.80;1.00;;;;;;5020115;28;20208;-39
2023/12/09 07:07:41;;;;;;;30.02;25.45;;;2.70;1.00;;;;;;5018984;28;21405;-40
2023/12/09 07:10:07;;;;;;;30.70;25.03;;;2.70;1.00;;;;;;5020687;28;20186;-39
2023/12/09 07:12:33;;;;;;;35.15;25.77;;;2.60;1.00;;;;;;5019884;28;20180;-39
2023/12/09 07:14:59;;;;;;;34.30;27.40;;;2.60;1.00;;;;;;5020731;28;20196;-39
2023/12/09 07:17:25;;;;;;;30.90;25.30;;;2.60;1.00;;;;;;5020651;28;20204;-39
2023/12/09 07:19:55;;;;;;;33.17;24.08;;;2.60;1.00;;;;;;5020409;28;20232;-39
2023/12/09 07:22:22;;;;;;;30.48;24.65;;;2.70;1.00;;;;;;5020554;28;20214;-40
2023/12/09 07:24:48;;;;;;;30.65;24.58;;;2.60;1.00;;;;;;5020051;28;20209;-40
2023/12/09 07:27:13;;;;;;;32.80;25.63;;;2.70;1.00;;;;;;5018660;28;20186;-40
2023/12/09 07:29:39;;;;;;;32.23;25.30;;;2.80;1.00;;;;;;5019309;28;21155;-38
2023/12/09 07:32:05;;;;;;;31.30;26.20;;;2.80;1.00;;;;;;5021824;28;20173;-39
2023/12/09 07:34:30;;;;;;;28.60;24.67;;;2.90;1.00;;;;;;5020646;28;20195;-39
2023/12/09 07:36:56;;;;;;;29.33;25.50;;;2.90;1.00;;;;;;5020074;28;20439;-40
2023/12/09 07:39:22;;;;;;;32.37;24.30;;;2.90;1.00;;;;;;5021198;28;20199;-39
2023/12/09 07:41:50;;;;;;;26.17;23.40;;;2.90;1.00;;;;;;5019484;28;20188;-39
2023/12/09 07:44:17;;;;;;;29.10;24.63;;;2.90;1.00;;;;;;5019931;28;20467;-40
2023/12/09 07:46:42;;;;;;;29.65;23.45;;;3.00;1.00;;;;;;5020558;28;20186;-39
2023/12/09 07:49:08;;;;;;;34.23;25.33;;;3.10;1.00;;;;;;5021045;28;20193;-39
2023/12/09 07:51:34;;;;;;;32.37;25.50;;;3.10;1.00;;;;;;5020876;28;20672;-39
2023/12/09 07:54:00;;;;;;;32.40;23.60;;;3.20;1.00;;;;;;5019916;28;20544;-39
2023/12/09 07:56:25;;;;;;;30.47;24.17;;;3.10;1.00;;;;;;5019409;28;20193;-39
2023/12/09 07:58:51;;;;;;;31.37;24.00;;;3.10;1.00;;;;;;5018905;28;20190;-38
2023/12/09 08:01:18;;;;;;;29.60;24.60;;;3.10;1.00;;;;;;5019952;28;20188;-39
2023/12/09 08:03:43;;;;;;;33.17;24.58;;;3.20;1.00;;;;;;5019159;28;20263;-39
2023/12/09 08:06:10;;;;;;;29.03;22.70;;;3.20;1.00;;;;;;5019657;28;20181;-39
2023/12/09 08:08:35;;;;;;;30.27;22.30;;;3.20;1.00;;;;;;5019888;28;20174;-39
2023/12/09 08:11:01;;;;;;;24.97;22.10;;;3.30;1.00;;;;;;5019662;28;20215;-39
2023/12/09 08:13:27;;;;;;;30.23;22.97;;;3.30;1.00;;;;;;5020248;28;20315;-39
2023/12/09 08:15:52;;;;;;;28.47;23.27;;;3.40;1.00;;;;;;5021661;28;20286;-39
2023/12/09 08:18:18;;;;;;;29.00;23.17;;;3.50;1.00;;;;;;5024360;28;20272;-39
2023/12/09 08:20:43;;;;;;;28.87;24.23;;;3.60;1.00;;;;;;5022190;28;20303;-39
2023/12/09 08:23:09;;;;;;;29.90;24.10;;;3.70;1.00;;;;;;5023334;28;20188;-37
2023/12/09 08:25:34;;;;;;;30.80;23.50;;;3.70;1.00;;;;;;5022595;28;20224;-40
2023/12/09 08:28:00;;;;;;;30.37;23.77;;;3.80;99.90;;;;;;5023761;28;20277;-39
2023/12/09 08:30:26;;;;;;;29.57;23.20;;;3.80;99.90;;;;;;5023243;28;20189;-39
2023/12/09 08:32:51;;;;;;;27.00;23.23;;;3.80;99.90;;;;;;5022391;28;20189;-39
2023/12/09 08:35:17;;;;;;;29.93;24.00;;;3.80;1.00;;;;;;5022918;28;20290;-39
2023/12/09 08:37:42;;;;;;;32.13;23.67;;;3.90;1.00;;;;;;5023293;28;20519;-39
2023/12/09 08:40:12;;;;;;;29.67;22.10;;;3.90;1.00;;;;;;5021643;28;20229;-39
2023/12/09 08:42:38;;;;;;;30.55;25.05;;;3.80;1.00;;;;;;5022855;28;20182;-39
2023/12/09 08:45:05;;;;;;;25.85;23.13;;;3.70;1.00;;;;;;5022228;28;21043;-40
2023/12/09 08:47:31;;;;;;;30.13;23.83;;;3.80;1.00;;;;;;5022122;28;20241;-40
2023/12/09 08:49:56;;;;;;;27.30;24.00;;;3.80;1.00;;;;;;5021052;28;20185;-39
2023/12/09 08:52:22;;;;;;;35.03;24.30;;;3.80;1.00;;;;;;5022345;28;20277;-39
2023/12/09 08:54:47;;;;;;;28.20;24.17;;;3.80;1.00;;;;;;5022446;28;20178;-39
2023/12/09 08:57:13;;;;;;;31.03;23.23;;;3.80;1.00;;;;;;5022894;28;20185;-40
2023/12/09 08:59:39;;;;;;;29.00;24.27;;;3.90;1.00;;;;;;5022437;28;20232;-39
2023/12/09 09:02:04;;;;;;;28.80;23.47;;;3.90;1.00;;;;;;5023482;28;20254;-41
2023/12/09 09:04:30;;;;;;;32.17;24.60;;;4.00;1.00;;;;;;5023407;28;20206;-39
2023/12/09 09:06:55;;;;;;;30.37;24.33;;;4.00;1.00;;;;;;5023201;28;20210;-39
2023/12/09 09:09:21;;;;;;;27.27;22.23;;;4.00;99.90;;;;;;5023325;28;20189;-39
2023/12/09 09:11:46;;;;;;;30.50;25.00;;;4.10;99.90;;;;;;5023154;28;20203;-38
2023/12/09 09:14:12;;;;;;;28.20;22.67;;;4.10;1.00;;;;;;5023660;28;20205;-39
2023/12/09 09:16:38;;;;;;;28.07;24.10;;;4.20;1.00;;;;;;5022976;28;21357;-38
2023/12/09 09:19:05;;;;;;;33.33;23.00;;;4.30;1.00;;;;;;5022716;28;20288;-55
2023/12/09 09:21:30;;;;;;;30.88;25.48;;;4.20;99.90;;;;;;5022815;28;20221;-52
2023/12/09 09:23:56;;;;;;;31.13;25.47;;;4.20;99.90;;;;;;5022588;28;20693;-50
2023/12/09 09:26:22;;;;;;;30.17;24.17;;;4.10;99.90;;;;;;5022861;28;20220;-55
2023/12/09 09:28:47;;;;;;;30.77;23.87;;;4.10;99.90;;;;;;5023410;28;20181;-52
2023/12/09 09:31:13;;;;;;;28.77;23.90;;;4.10;99.90;;;;;;5022260;28;20191;-52
2023/12/09 09:33:41;;;;;;;30.10;24.07;;;4.10;99.90;;;;;;5023384;28;20427;-53
2023/12/09 09:36:07;;;;;;;30.60;23.75;;;4.20;99.90;;;;;;5023094;28;20818;-39
2023/12/09 09:38:34;;;;;;;28.85;23.90;;;4.20;99.90;;;;;;5023092;28;20265;-39
2023/12/09 09:41:00;;;;;;;31.05;24.90;;;4.30;99.90;;;;;;5022371;28;20186;-39
2023/12/09 09:43:35;;;;;;;31.85;25.38;;;4.30;99.90;;;;;;5022691;28;20229;-52
2023/12/09 09:46:03;;;;;;;29.75;25.05;;;4.30;99.90;;;;;;5021627;28;20662;-55
2023/12/09 09:48:35;;;;;;;35.20;25.88;;;4.40;1.00;;;;;;5022613;28;20174;-53
2023/12/09 09:51:05;;;;;;;30.05;25.05;;;4.50;1.00;;;;;;5021693;28;20656;-55
2023/12/09 09:53:49;;;;;;;32.38;25.60;;;4.60;99.90;;;;;;5022833;28;20191;-52
2023/12/09 09:56:15;;;;;;;34.03;24.98;;;4.60;99.90;;;;;;5022770;28;20734;-50
2023/12/09 09:58:42;;;;;;;32.17;23.15;;;4.70;1.00;;;;;;5020743;28;20619;-54
2023/12/09 10:01:10;;;;;;;28.15;22.92;;;4.70;1.00;;;;;;5022306;28;20186;-53
2023/12/09 10:03:35;;;;;;;34.97;26.45;;;4.70;99.90;;;;;;5022164;28;20286;-53
2023/12/09 10:06:01;;;;;;;33.30;25.60;;;4.60;99.90;;;;;;5022163;28;20182;-56
2023/12/09 10:08:26;;;;;;;29.10;23.93;;;4.70;99.90;;;;;;5021446;28;20191;-52
2023/12/09 10:10:52;;;;;;;33.10;25.53;;;5.00;99.90;;;;;;5022359;28;21171;-56
2023/12/09 10:13:18;;;;;;;30.10;23.23;;;5.70;15.90;;;;;;5022640;28;20265;-55
2023/12/09 10:15:43;;;;;;;31.70;25.27;;;6.50;99.90;;;;;;5021583;28;21008;-56
2023/12/09 10:18:13;;;;;;;30.63;25.13;;;7.10;99.90;;;;;;5021444;28;20190;-54
2023/12/09 10:20:39;;;;;;;31.47;23.97;;;7.90;1.00;;;;;;5021237;28;20281;-45
2023/12/09 10:23:05;;;;;;;31.53;25.93;;;8.60;99.90;;;;;;5022215;28;21223;-40
2023/12/09 10:25:31;;;;;;;32.50;25.97;;;8.60;1.00;;;;;;5021904;28;20285;-41
2023/12/09 10:27:57;;;;;;;27.60;24.30;;;8.40;1.00;;;;;;5021119;28;20502;-41
2023/12/09 10:30:23;;;;;;;28.20;25.20;;;8.10;1.00;;;;;;5022614;28;20186;-53
2023/12/09 10:32:49;;;;;;;27.40;24.53;;;7.70;1.00;;;;;;5021767;28;20421;-52
2023/12/09 10:35:16;;;;;;;32.80;26.03;;;7.40;41.90;;;;;;5019657;28;20271;-55
2023/12/09 10:37:43;;;;;;;29.17;24.30;;;7.10;99.90;;;;;;5018776;28;20507;-52
2023/12/09 10:40:09;;;;;;;29.03;25.17;;;6.80;99.90;;;;;;5020684;28;20452;-54
2023/12/09 10:42:38;;;;;;;30.90;24.37;;;6.80;99.90;;;;;;5021021;28;20426;-54
2023/12/09 10:45:05;;;;;;;30.77;25.00;;;6.80;99.90;;;;;;5019971;28;20473;-55
2023/12/09 10:47:31;;;;;;;31.85;24.75;;;6.80;99.90;;;;;;5019018;28;20470;-57
2023/12/09 10:49:57;;;;;;;28.13;23.67;;;6.90;99.90;;;;;;5020371;28;20178;-54
2023/12/09 10:52:22;;;;;;;28.57;25.23;;;6.90;99.90;;;;;;5018317;28;20576;-54
2023/12/09 10:54:48;;;;;;;29.07;24.40;;;7.30;1.00;;;;;;5020606;28;20441;-57
2023/12/09 10:57:15;;;;;;;30.87;24.20;;;7.20;99.90;;;;;;5020682;28;20284;-54
2023/12/09 10:59:42;;;;;;;25.13;22.00;;;7.10;99.90;;;;;;5019735;28;20182;-50
2023/12/09 11:02:08;;;;;;;34.58;25.83;;;6.90;99.90;;;;;;5018224;28;20429;-51
2023/12/09 11:04:35;;;;;;;31.30;22.60;;;6.80;99.90;;;;;;5019063;28;20244;-54
2023/12/09 11:07:05;;;;;;;28.73;25.13;;;6.80;99.90;;;;;;5019874;28;20420;-51
2023/12/09 11:09:31;;;;;;;27.10;24.20;;;6.80;99.90;;;;;;5019349;28;20911;-53
2023/12/09 11:11:58;;;;;;;25.67;23.07;;;6.80;99.90;;;;;;5018961;28;20858;-39
2023/12/09 11:14:27;;;;;;;30.60;24.80;;;6.80;99.90;;;;;;5019829;28;20737;-41
2023/12/09 11:16:53;;;;;;;28.50;23.88;;;6.60;99.90;;;;;;5009546;28;21925;-40
2023/12/09 11:19:23;;;;;;;31.20;24.90;;;6.50;1.00;;;;;;5014804;28;20317;-40
2023/12/09 11:21:49;;;;;;;27.40;23.00;;;6.60;1.00;;;;;;5017627;28;20444;-38
2023/12/09 11:24:18;;;;;;;26.20;22.95;;;6.50;1.00;;;;;;5020485;28;20463;-42
2023/12/09 11:26:45;;;;;;;24.27;22.00;;;6.40;1.00;;;;;;5020866;28;20324;-40
2023/12/09 11:29:15;;;;;;;29.67;23.48;;;6.30;1.00;;;;;;5020854;28;20175;-40
2023/12/09 11:31:48;;;;;;;26.23;22.20;;;6.20;1.00;;;;;;5019451;28;20225;-39
2023/12/09 11:34:17;;;;;;;27.92;23.30;;;6.30;1.00;;;;;;5020457;28;20178;-39
2023/12/09 11:36:45;;;;;;;26.15;22.58;;;6.20;1.00;;;;;;5020137;28;20186;-42
2023/12/09 11:39:12;;;;;;;25.73;22.25;;;6.10;1.00;;;;;;5020126;28;20182;-41
2023/12/09 11:41:40;;;;;;;25.17;22.65;;;6.10;1.00;;;;;;5019288;28;20201;-42
2023/12/09 11:44:07;;;;;;;25.95;22.55;;;6.20;1.00;;;;;;5009721;28;20207;-39
2023/12/09 11:46:35;;;;;;;25.60;21.50;;;6.30;14.70;;;;;;5016236;28;20193;-40
2023/12/09 11:49:02;;;;;;;25.10;22.42;;;6.30;1.00;;;;;;5020231;28;20182;-39
2023/12/09 11:51:29;;;;;;;24.25;21.65;;;6.40;1.00;;;;;;5016597;28;20178;-42
2023/12/09 11:53:59;;;;;;;23.33;20.93;;;6.60;1.00;;;;;;5018320;28;20543;-39
2023/12/09 11:56:26;;;;;;;29.83;23.43;;;6.60;1.00;;;;;;5016876;28;20441;-41
2023/12/09 11:58:52;;;;;;;26.67;23.17;;;6.60;1.00;;;;;;5017604;28;20414;-40
2023/12/09 12:01:18;;;;;;;25.47;22.77;;;6.80;1.00;;;;;;5017103;28;20444;-40
2023/12/09 12:03:48;;;;;;;23.83;21.37;;;7.00;1.00;;;;;;5015864;28;20433;-39
2023/12/09 12:06:16;;;;;;;24.73;22.23;;;7.20;1.00;;;;;;5016336;28;20429;-40
2023/12/09 13:43:03;;;;;;;19.60;17.90;;;9.90;1.00;;;;;;5964152;23;20690;31
2023/12/09 13:45:35;;;;;;;19.90;18.10;;;9.40;1.00;;;;;;4869023;29;20542;-43
2023/12/09 13:48:01;;;;;;;18.60;16.90;;;9.10;1.00;;;;;;4873002;29;20507;-42
2023/12/09 13:50:27;;;;;;;17.70;16.27;;;8.60;1.00;;;;;;4874007;29;20531;-45
2023/12/09 13:52:52;;;;;;;19.63;18.00;;;8.30;1.00;;;;;;4873465;29;20425;-44
2023/12/09 13:55:20;;;;;;;21.03;18.83;;;7.90;1.00;;;;;;4873114;29;20200;-44
2023/12/09 13:57:46;;;;;;;21.63;19.50;;;7.70;1.00;;;;;;4870794;29;20318;-46
2023/12/09 14:00:13;;;;;;;20.20;18.10;;;7.70;1.00;;;;;;4901964;29;20523;-43
2023/12/09 14:02:39;;;;;;;22.70;20.40;;;7.60;1.00;;;;;;4864837;29;20198;-43
2023/12/09 14:05:09;;;;;;;22.47;19.60;;;7.30;1.00;;;;;;4869483;29;20559;-43
2023/12/09 14:07:35;;;;;;;24.53;21.80;;;7.10;1.00;;;;;;4876806;29;20435;-43
2023/12/09 14:10:00;;;;;;;23.90;21.50;;;7.00;1.00;;;;;;4866146;29;21298;-44
2023/12/09 14:12:26;;;;;;;22.90;20.60;;;6.80;1.00;;;;;;4873591;29;20444;-44
2023/12/09 14:14:52;;;;;;;25.97;22.60;;;6.80;71.80;;;;;;4867051;29;20445;-44